Time;durP1;ratioP1;P1;durP2;ratioP2;P2;SDS_P1;SDS_P2;PMS_P1;PMS_P2;Temp;Humidity;BMP_temperature;BMP_pressure;BME280_temperature;BME280_humidity;BME280_pressure;Samples;Min_cycle;Max_cycle;Signal;HPM_P1;HPM_P2
2021/01/09 05:20:22;;;;;;;6.22;3.88;;;-2.80;99.90;;;;;;4889643;26;20502;-72
2021/01/09 05:22:48;;;;;;;6.13;3.63;;;-2.80;99.90;;;;;;4973720;28;20046;-73
2021/01/09 05:25:14;;;;;;;5.93;3.50;;;-2.80;99.90;;;;;;4973355;28;20482;-73
2021/01/09 05:27:40;;;;;;;3.92;3.10;;;-2.80;99.90;;;;;;4973355;28;20470;-73
2021/01/09 05:30:07;;;;;;;4.82;3.42;;;-2.80;99.90;;;;;;4973298;28;20038;-71
2021/01/09 05:32:33;;;;;;;4.78;3.20;;;-2.80;99.90;;;;;;4973384;28;20449;-67
2021/01/09 05:34:59;;;;;;;4.63;3.65;;;-2.80;99.90;;;;;;4973626;28;20034;-67
2021/01/09 05:37:25;;;;;;;3.88;3.10;;;-2.80;99.90;;;;;;4973679;28;20102;-76
2021/01/09 05:39:53;;;;;;;4.93;3.13;;;-2.80;99.90;;;;;;4973369;28;20074;-77
2021/01/09 05:42:24;;;;;;;3.88;3.00;;;-2.80;99.90;;;;;;4973296;28;20039;-76
2021/01/09 05:44:50;;;;;;;;;;;-2.60;99.90;;;;;;4973465;28;20039;-73
2021/01/09 05:47:19;;;;;;;5.72;2.38;;;-2.10;99.90;;;;;;4973333;28;19957;-74
2021/01/09 05:49:45;;;;;;;4.80;2.78;;;-2.00;99.90;;;;;;4972977;28;20046;-73
2021/01/09 05:52:12;;;;;;;4.13;2.67;;;-2.20;99.90;;;;;;4972965;28;20537;-72
2021/01/09 05:54:38;;;;;;;4.82;3.03;;;-2.30;99.90;;;;;;4972744;28;20118;-76
2021/01/09 05:57:05;;;;;;;3.90;2.78;;;-2.40;99.90;;;;;;4976024;28;20496;-75
2021/01/09 05:59:32;;;;;;;5.55;3.42;;;-2.40;99.90;;;;;;4976606;28;20053;-75
2021/01/09 06:02:00;;;;;;;3.78;2.72;;;-2.40;99.90;;;;;;4976581;28;20082;-75
2021/01/09 06:04:28;;;;;;;3.75;2.67;;;-2.50;99.90;;;;;;4977546;28;20474;-75
2021/01/09 06:07:06;;;;;;;3.90;3.00;;;-2.50;99.90;;;;;;4976699;28;20038;-75
2021/01/09 06:09:35;;;;;;;5.30;3.63;;;-2.50;99.90;;;;;;4974550;28;20027;-75
2021/01/09 06:12:06;;;;;;;6.45;3.83;;;-2.50;99.90;;;;;;4976480;28;20039;-78
2021/01/09 06:14:35;;;;;;;5.13;3.25;;;-2.60;99.90;;;;;;4975270;28;20051;-78
2021/01/09 06:17:03;;;;;;;4.65;3.30;;;-2.70;99.90;;;;;;4973947;28;20030;-78
2021/01/09 06:19:29;;;;;;;4.28;3.25;;;-2.70;99.90;;;;;;4976022;28;20047;-78
2021/01/09 06:21:55;;;;;;;7.45;3.97;;;-2.70;99.90;;;;;;4976799;28;20043;-78
2021/01/09 06:24:22;;;;;;;5.13;3.38;;;-2.70;99.90;;;;;;4973724;28;20442;-83
2021/01/09 06:26:48;;;;;;;4.90;3.20;;;-2.60;99.90;;;;;;4976527;28;20042;-85
2021/01/09 06:29:26;;;;;;;5.57;3.35;;;-2.60;99.90;;;;;;4975185;28;20027;-72
2021/01/09 06:31:59;;;;;;;4.75;3.15;;;-2.50;99.90;;;;;;4976731;28;20027;-71
2021/01/09 06:34:27;;;;;;;8.98;3.30;;;-2.50;99.90;;;;;;4976707;28;20027;-71
2021/01/09 06:37:01;;;;;;;5.82;3.90;;;-2.40;99.90;;;;;;4976729;28;20030;-71
2021/01/09 06:39:37;;;;;;;4.18;2.83;;;-2.30;99.90;;;;;;4976568;28;20031;-71
2021/01/09 06:42:05;;;;;;;5.88;3.35;;;-2.40;99.90;;;;;;4976750;28;20480;-71
2021/01/09 06:44:32;;;;;;;6.30;3.60;;;-2.50;99.90;;;;;;4976125;28;20129;-71
2021/01/09 06:46:58;;;;;;;5.97;3.80;;;-2.50;99.90;;;;;;4976400;28;20485;-71
2021/01/09 06:49:28;;;;;;;5.93;3.78;;;-2.60;99.90;;;;;;4976241;28;20066;-71
2021/01/09 06:51:55;;;;;;;6.68;3.80;;;-2.70;99.90;;;;;;4976421;28;20019;-71
2021/01/09 06:54:27;;;;;;;4.35;3.28;;;-2.70;99.90;;;;;;4976182;28;20558;-71
2021/01/09 06:57:04;;;;;;;5.15;3.42;;;-2.70;99.90;;;;;;4976075;28;20521;-81
2021/01/09 06:59:34;;;;;;;4.57;2.85;;;-2.60;99.90;;;;;;4976025;28;20059;-81
2021/01/09 07:02:13;;;;;;;5.57;3.13;;;-2.60;99.90;;;;;;4976131;28;20498;-80
2021/01/09 07:04:55;;;;;;;5.25;3.45;;;-2.60;99.90;;;;;;4975749;28;20042;-84
2021/01/09 07:07:27;;;;;;;5.72;4.10;;;-2.60;99.90;;;;;;4976231;28;20034;-88
2021/01/09 07:10:05;;;;;;;4.05;2.97;;;-2.60;99.90;;;;;;4976026;28;20031;-77
2021/01/09 07:12:32;;;;;;;4.78;2.95;;;-1.70;99.90;;;;;;4976309;28;20034;-80
2021/01/09 07:15:03;;;;;;;5.30;3.25;;;-0.70;99.90;;;;;;4975779;28;20027;-82
2021/01/09 07:17:31;;;;;;;;;;;-1.00;99.90;;;;;;4976360;28;20477;-78
2021/01/09 07:19:58;;;;;;;5.35;3.00;;;-1.50;99.90;;;;;;4975362;28;19966;-81
2021/01/09 07:22:26;;;;;;;4.32;3.25;;;-0.80;99.90;;;;;;4976194;28;20406;-85
2021/01/09 07:24:54;;;;;;;6.18;3.08;;;-1.00;99.90;;;;;;4975474;28;20067;-85
2021/01/09 07:27:21;;;;;;;6.72;3.22;;;-1.40;99.90;;;;;;4975914;28;20425;-84
2021/01/09 07:29:56;;;;;;;4.65;3.50;;;-1.60;99.90;;;;;;4975321;28;20031;-82
2021/01/09 07:32:43;;;;;;;4.38;3.17;;;-1.80;99.90;;;;;;4975972;28;20031;-75
2021/01/09 07:35:09;;;;;;;5.32;2.80;;;-1.90;99.90;;;;;;4975681;28;20023;-77
2021/01/09 07:37:39;;;;;;;4.15;3.25;;;-1.90;99.90;;;;;;4975253;28;20097;-76
2021/01/09 07:40:13;;;;;;;5.38;3.22;;;-1.90;99.90;;;;;;4975589;28;20109;-74
2021/01/09 07:42:39;;;;;;;4.90;3.33;;;-2.00;99.90;;;;;;4978329;28;20221;-77
2021/01/09 07:45:07;;;;;;;5.43;3.40;;;-2.00;99.90;;;;;;4977718;28;20066;-67
2021/01/09 07:47:40;;;;;;;4.10;3.03;;;-2.10;99.90;;;;;;4978663;28;20038;-67
2021/01/09 07:50:11;;;;;;;7.28;3.35;;;-2.10;99.90;;;;;;4978930;28;20038;-67
2021/01/09 07:52:37;;;;;;;4.70;3.65;;;-2.20;99.90;;;;;;4975874;28;20027;-67
2021/01/09 07:55:05;;;;;;;4.93;3.67;;;-2.30;99.90;;;;;;4975093;28;20023;-67
2021/01/09 07:57:32;;;;;;;4.00;3.30;;;-2.30;99.90;;;;;;4974849;28;20157;-77
2021/01/09 07:59:58;;;;;;;5.57;3.70;;;-2.30;99.90;;;;;;4974359;28;20018;-77
2021/01/09 08:02:31;;;;;;;6.60;3.53;;;-2.30;99.90;;;;;;4974507;28;20018;-77
2021/01/09 08:05:12;;;;;;;4.60;3.50;;;-2.40;99.90;;;;;;4974635;28;20106;-76
2021/01/09 08:07:43;;;;;;;4.80;3.30;;;-2.50;99.90;;;;;;4975089;28;20157;-78
2021/01/09 08:10:13;;;;;;;5.13;3.47;;;-2.60;99.90;;;;;;4974775;28;20541;-79
2021/01/09 08:12:38;;;;;;;4.20;3.45;;;-2.60;99.90;;;;;;4974389;28;20023;-76
2021/01/09 08:15:05;;;;;;;4.53;3.60;;;-2.60;99.90;;;;;;4974566;28;20041;-76
2021/01/09 08:17:31;;;;;;;5.00;3.72;;;-2.60;99.90;;;;;;4975005;28;20031;-77
2021/01/09 08:20:10;;;;;;;3.85;3.22;;;-2.60;99.90;;;;;;4973617;28;20596;-78
2021/01/09 08:22:38;;;;;;;6.25;4.00;;;-2.70;99.90;;;;;;4974608;28;20117;-77
2021/01/09 08:25:11;;;;;;;5.85;3.85;;;-2.70;99.90;;;;;;4974331;28;20501;-78
2021/01/09 08:27:44;;;;;;;4.72;3.70;;;-2.70;99.90;;;;;;4974502;28;20027;-80
2021/01/09 08:30:13;;;;;;;3.85;3.00;;;-2.70;99.90;;;;;;4974604;28;20030;-78
2021/01/09 08:32:39;;;;;;;5.65;3.47;;;-2.70;99.90;;;;;;4975560;28;20027;-76
2021/01/09 08:35:05;;;;;;;7.50;3.78;;;-2.80;99.90;;;;;;4977456;28;20027;-78
2021/01/09 08:37:31;;;;;;;5.80;3.67;;;-2.70;99.90;;;;;;4975037;28;20053;-90
2021/01/09 08:39:57;;;;;;;6.47;3.95;;;-2.70;99.90;;;;;;4974661;28;20545;-89
2021/01/09 08:42:23;;;;;;;5.15;3.25;;;-2.60;99.90;;;;;;4974506;28;20033;-85
2021/01/09 08:44:49;;;;;;;4.88;3.50;;;-2.60;99.90;;;;;;4974172;28;20046;-87
2021/01/09 08:47:16;;;;;;;4.35;3.40;;;-2.60;99.90;;;;;;4974621;28;20023;-86
2021/01/09 08:49:46;;;;;;;6.32;3.55;;;-2.60;99.90;;;;;;4974201;28;20058;-86
2021/01/09 08:52:20;;;;;;;5.53;3.65;;;-2.60;99.90;;;;;;4974175;28;20106;-86
2021/01/09 08:54:47;;;;;;;5.05;3.83;;;-2.60;99.90;;;;;;4974228;28;20058;-91
2021/01/09 08:57:14;;;;;;;4.70;3.40;;;-2.60;99.90;;;;;;4974528;28;20565;-90
2021/01/09 08:59:41;;;;;;;5.22;3.58;;;-2.60;99.90;;;;;;4974152;28;20467;-88
2021/01/09 09:02:12;;;;;;;5.10;3.67;;;-2.60;99.90;;;;;;4975056;28;20034;-91
2021/01/09 09:04:46;;;;;;;6.03;4.13;;;-2.60;99.90;;;;;;4975422;28;20054;-91
2021/01/09 09:07:14;;;;;;;7.05;3.63;;;-2.50;99.90;;;;;;4975108;28;20026;-91
2021/01/09 09:09:41;;;;;;;5.18;3.60;;;-2.50;99.90;;;;;;4972369;28;20027;-92
2021/01/09 09:12:09;;;;;;;7.25;3.60;;;-2.50;99.90;;;;;;4974556;28;20106;-91
2021/01/09 09:14:35;;;;;;;5.40;3.42;;;-2.60;99.90;;;;;;4973596;28;20030;-91
2021/01/09 09:17:06;;;;;;;5.35;3.78;;;-2.60;99.90;;;;;;4975861;28;20034;-91
2021/01/09 09:19:37;;;;;;;8.05;3.70;;;-2.50;99.90;;;;;;4975740;28;20046;-91
2021/01/09 09:22:03;;;;;;;5.00;3.55;;;-2.40;99.90;;;;;;4974398;28;20387;-79
2021/01/09 09:24:43;;;;;;;4.50;2.92;;;-2.40;99.90;;;;;;4973668;28;20046;-84
2021/01/09 09:27:25;;;;;;;4.18;3.20;;;-1.90;99.90;;;;;;4973614;28;20466;-80
2021/01/09 09:30:25;;;;;;;6.07;3.47;;;-1.80;99.90;;;;;;4973390;28;20058;-83
2021/01/09 09:32:50;;;;;;;5.23;3.57;;;-2.00;99.90;;;;;;4961692;28;20114;-83
2021/01/09 09:35:26;;;;;;;6.90;3.85;;;-2.20;99.90;;;;;;4973380;28;20566;-83
2021/01/09 09:37:53;;;;;;;4.63;3.20;;;-2.30;99.90;;;;;;4973338;28;20077;-74
2021/01/09 09:40:27;;;;;;;4.88;3.30;;;-1.00;99.90;;;;;;4973287;28;20031;-76
2021/01/09 09:42:54;;;;;;;4.95;3.50;;;-0.10;99.90;;;;;;4972480;28;20501;-75
2021/01/09 09:45:20;;;;;;;4.85;3.20;;;0.20;99.90;;;;;;4973121;28;20077;-80
2021/01/09 09:47:50;;;;;;;5.30;3.47;;;-0.20;99.90;;;;;;4973228;28;20089;-79
2021/01/09 09:50:20;;;;;;;5.05;3.55;;;-0.80;99.90;;;;;;4973283;28;20058;-80
2021/01/09 09:52:59;;;;;;;3.80;3.30;;;-1.30;99.90;;;;;;4972957;28;20451;-80
2021/01/09 09:55:25;;;;;;;5.53;3.47;;;-1.60;99.90;;;;;;4971185;28;20031;-76
2021/01/09 09:58:09;;;;;;;5.68;3.50;;;-1.80;99.90;;;;;;4972515;28;20430;-79
2021/01/09 10:00:42;;;;;;;4.82;3.28;;;-1.90;99.90;;;;;;4958272;28;20545;-78
2021/01/09 10:03:08;;;;;;;4.43;3.47;;;-1.90;99.90;;;;;;4972477;28;20560;-79
2021/01/09 10:05:34;;;;;;;4.97;3.30;;;-1.90;99.90;;;;;;4972306;28;20039;-76
2021/01/09 10:08:14;;;;;;;4.20;3.03;;;-1.90;99.90;;;;;;4972607;28;20030;-77
2021/01/09 10:10:41;;;;;;;5.88;3.92;;;-1.90;99.90;;;;;;4971455;28;20031;-78
2021/01/09 10:13:07;;;;;;;5.35;3.50;;;-2.00;99.90;;;;;;4972153;28;20027;-77
2021/01/09 10:15:32;;;;;;;6.63;3.53;;;-2.00;99.90;;;;;;4970720;28;20571;-77
2021/01/09 10:18:01;;;;;;;6.22;3.72;;;-2.00;99.90;;;;;;4971153;28;20085;-79
2021/01/09 10:20:27;;;;;;;6.20;3.78;;;-2.00;99.90;;;;;;4972897;28;20039;-77
2021/01/09 10:22:53;;;;;;;5.43;3.47;;;-2.10;99.90;;;;;;4972820;28;20486;-77
2021/01/09 10:25:19;;;;;;;5.28;3.60;;;-2.10;99.90;;;;;;4972770;28;20039;-78
2021/01/09 10:27:45;;;;;;;6.47;3.72;;;-2.20;99.90;;;;;;4972767;28;20023;-78
2021/01/09 10:30:11;;;;;;;5.00;3.53;;;-2.20;99.90;;;;;;4973133;28;20034;-78
2021/01/09 10:32:37;;;;;;;5.22;3.70;;;-2.20;99.90;;;;;;4975011;28;20058;-79
2021/01/09 10:35:04;;;;;;;5.82;3.60;;;-2.20;99.90;;;;;;4975656;28;20030;-77
2021/01/09 10:37:29;;;;;;;5.03;3.60;;;-2.20;99.90;;;;;;4972554;28;20490;-79
2021/01/09 10:39:55;;;;;;;7.13;3.53;;;-2.20;99.90;;;;;;4971955;28;20063;-78
2021/01/09 10:42:21;;;;;;;4.47;3.42;;;-2.20;99.90;;;;;;4972796;28;20031;-80
2021/01/09 10:44:46;;;;;;;5.30;3.60;;;-2.20;99.90;;;;;;4975110;28;20045;-77
2021/01/09 10:47:12;;;;;;;6.55;4.00;;;-2.30;99.90;;;;;;4974389;28;20662;-77
2021/01/09 10:49:38;;;;;;;5.57;3.72;;;-2.30;99.90;;;;;;4974746;28;20031;-79
2021/01/09 10:52:04;;;;;;;6.28;3.90;;;-2.30;99.90;;;;;;4973658;28;20026;-81
2021/01/09 10:54:29;;;;;;;5.28;3.70;;;-2.20;99.90;;;;;;4975567;28;20035;-75
2021/01/09 10:56:55;;;;;;;5.47;3.60;;;-2.20;99.90;;;;;;4975250;28;20027;-76
2021/01/09 10:59:21;;;;;;;4.13;3.33;;;-2.20;99.90;;;;;;4975344;28;20026;-76
2021/01/09 11:01:46;;;;;;;5.20;3.50;;;-2.10;99.90;;;;;;4974730;28;20081;-78
2021/01/09 11:04:12;;;;;;;5.47;4.28;;;-2.10;99.90;;;;;;4974739;28;20066;-74
2021/01/09 11:06:38;;;;;;;5.95;3.97;;;-2.10;99.90;;;;;;4974950;28;20030;-72
2021/01/09 11:09:04;;;;;;;4.20;3.38;;;-2.10;99.90;;;;;;4974636;28;20399;-72
2021/01/09 11:11:30;;;;;;;4.18;3.70;;;-2.10;99.90;;;;;;4974953;28;20034;-76
2021/01/09 11:13:55;;;;;;;4.35;3.58;;;-2.10;99.90;;;;;;4974434;28;20023;-75
2021/01/09 11:16:22;;;;;;;6.93;3.97;;;-2.10;99.90;;;;;;4973913;28;20053;-76
2021/01/09 11:18:48;;;;;;;4.82;3.53;;;-2.10;99.90;;;;;;4982016;28;20034;-75
2021/01/09 11:21:15;;;;;;;5.78;3.85;;;-2.10;99.90;;;;;;4994209;28;20069;-76
2021/01/09 11:23:47;;;;;;;5.20;3.88;;;-2.10;99.90;;;;;;4994996;28;20026;-76
2021/01/09 11:26:26;;;;;;;4.85;3.63;;;-2.00;99.90;;;;;;4994714;28;20081;-75
2021/01/09 11:28:52;;;;;;;4.28;3.40;;;-2.00;99.90;;;;;;4994645;28;20034;-76
2021/01/09 11:31:19;;;;;;;5.47;3.83;;;-2.00;99.90;;;;;;4994418;28;20026;-75
2021/01/09 11:33:45;;;;;;;5.28;3.50;;;-1.90;99.90;;;;;;4994823;28;20038;-76
2021/01/09 11:36:12;;;;;;;6.30;3.80;;;-1.90;99.90;;;;;;4994666;28;20026;-76
2021/01/09 11:38:38;;;;;;;4.40;3.28;;;-1.90;99.90;;;;;;4994657;28;20018;-79
2021/01/09 11:41:04;;;;;;;4.78;3.38;;;-2.00;99.90;;;;;;4974094;28;20023;-76
2021/01/09 11:43:30;;;;;;;4.65;3.42;;;-2.00;99.90;;;;;;4976437;28;20030;-77
2021/01/09 11:45:56;;;;;;;4.65;3.15;;;-1.90;99.90;;;;;;4986248;28;20038;-75
2021/01/09 11:48:23;;;;;;;4.07;3.15;;;-1.90;99.90;;;;;;4994781;28;20088;-76
2021/01/09 11:50:50;;;;;;;5.60;3.35;;;-1.90;99.90;;;;;;4994631;28;20031;-79
2021/01/09 11:53:16;;;;;;;5.53;3.70;;;-1.90;99.90;;;;;;4993682;28;20022;-75
2021/01/09 11:55:42;;;;;;;4.65;2.90;;;-1.90;99.90;;;;;;4994578;28;20029;-79
2021/01/09 11:58:08;;;;;;;7.78;3.47;;;-1.90;99.90;;;;;;4994239;28;20022;-78
2021/01/09 12:00:33;;;;;;;4.38;3.20;;;-1.90;99.90;;;;;;4994190;28;20019;-78
2021/01/09 12:02:59;;;;;;;4.63;3.10;;;-1.90;99.90;;;;;;4994197;28;20495;-79
2021/01/09 12:05:25;;;;;;;5.65;3.63;;;-1.90;99.90;;;;;;4992929;28;20035;-78
2021/01/09 12:07:51;;;;;;;4.68;3.20;;;-1.90;99.90;;;;;;4994123;28;20033;-78
2021/01/09 12:10:16;;;;;;;4.93;3.33;;;-1.90;99.90;;;;;;4992585;28;20031;-80
2021/01/09 12:12:42;;;;;;;4.45;3.40;;;-1.90;99.90;;;;;;4973133;28;20515;-80
2021/01/09 12:15:09;;;;;;;5.28;3.30;;;-1.80;99.90;;;;;;4974540;28;20038;-80
2021/01/09 12:17:35;;;;;;;5.35;3.40;;;-1.80;99.90;;;;;;4974535;28;20102;-79
2021/01/09 12:20:02;;;;;;;5.25;3.42;;;-1.80;99.90;;;;;;4974167;28;20517;-80
2021/01/09 12:22:28;;;;;;;4.68;3.13;;;-1.70;99.90;;;;;;4974575;28;20046;-79
2021/01/09 12:24:55;;;;;;;6.35;3.67;;;-1.70;99.90;;;;;;4974174;28;20133;-76
2021/01/09 12:27:26;;;;;;;4.63;3.45;;;-1.70;99.90;;;;;;4974471;28;20027;-70
2021/01/09 12:29:52;;;;;;;5.90;3.33;;;-1.60;99.90;;;;;;4974567;28;20109;-70
2021/01/09 12:32:17;;;;;;;3.70;2.65;;;-0.70;99.90;;;;;;4974444;28;20106;-70
2021/01/09 12:34:44;;;;;;;5.32;2.92;;;0.00;99.90;;;;;;4977809;28;20038;-71
2021/01/09 12:37:10;;;;;;;4.25;3.00;;;0.50;99.90;;;;;;4973913;28;20021;-70
2021/01/09 12:39:37;;;;;;;3.72;2.42;;;0.80;99.90;;;;;;4974209;28;20027;-70
2021/01/09 12:42:03;;;;;;;2.45;2.25;;;1.00;99.90;;;;;;4973631;28;20191;-70
2021/01/09 12:44:28;;;;;;;2.50;2.13;;;1.30;99.90;;;;;;4974158;28;20106;-70
2021/01/09 12:46:54;;;;;;;3.85;2.47;;;1.50;99.90;;;;;;4973844;28;20055;-70
2021/01/09 12:49:21;;;;;;;2.83;2.33;;;1.60;99.90;;;;;;4974136;28;20030;-70
2021/01/09 12:51:49;;;;;;;2.42;2.00;;;1.60;99.90;;;;;;4974155;28;20031;-70
2021/01/09 12:54:15;;;;;;;4.45;2.25;;;1.50;99.90;;;;;;4974411;28;20106;-70
2021/01/09 12:56:41;;;;;;;2.80;2.33;;;1.50;99.90;;;;;;4973854;28;20082;-70
2021/01/09 12:59:09;;;;;;;2.47;1.98;;;1.40;99.90;;;;;;4973760;28;20023;-70
2021/01/09 13:01:39;;;;;;;2.97;2.10;;;1.50;99.90;;;;;;4973806;28;20037;-70
2021/01/09 13:04:05;;;;;;;;;;;1.70;99.90;;;;;;4973993;28;20039;-70
2021/01/09 13:06:42;;;;;;;2.88;2.08;;;1.60;99.90;;;;;;4974049;28;19929;-70
2021/01/09 13:09:09;;;;;;;2.78;1.92;;;1.70;99.90;;;;;;4973571;28;20030;-70
2021/01/09 13:11:38;;;;;;;2.45;1.95;;;1.60;99.90;;;;;;4973811;28;20026;-70
2021/01/09 13:14:05;;;;;;;3.57;2.40;;;1.70;99.90;;;;;;4972422;28;20386;-70
2021/01/09 13:16:31;;;;;;;3.65;2.25;;;1.60;99.90;;;;;;4973378;28;20339;-70
2021/01/09 13:18:57;;;;;;;3.22;2.50;;;1.90;99.90;;;;;;4973250;28;20070;-70
2021/01/09 13:21:22;;;;;;;2.45;2.20;;;2.10;99.90;;;;;;4973697;28;20490;-70
2021/01/09 13:23:48;;;;;;;4.88;2.00;;;2.20;99.90;;;;;;4975998;28;20393;-89
2021/01/09 13:26:14;;;;;;;2.90;2.47;;;1.70;95.90;;;;;;4973504;28;20036;-83
2021/01/09 13:28:39;;;;;;;3.03;2.38;;;1.00;96.40;;;;;;4972880;28;20449;-83
2021/01/09 13:31:05;;;;;;;2.95;2.40;;;0.50;98.50;;;;;;4951397;28;20035;-78
2021/01/09 13:33:31;;;;;;;4.07;2.55;;;0.20;99.90;;;;;;4954280;28;20020;-83
2021/01/09 13:35:57;;;;;;;3.63;2.70;;;-0.10;99.90;;;;;;4953976;28;20031;-78
2021/01/09 13:38:23;;;;;;;3.15;2.58;;;-0.30;99.90;;;;;;4954009;28;20467;-80
2021/01/09 13:40:49;;;;;;;3.10;2.80;;;-0.40;99.90;;;;;;4957354;28;20122;-82
2021/01/09 13:43:18;;;;;;;3.38;2.78;;;-0.50;99.90;;;;;;4973222;28;20475;-83
2021/01/09 13:45:48;;;;;;;5.32;2.80;;;-0.60;99.90;;;;;;4973212;28;20442;-86
2021/01/09 13:48:14;;;;;;;4.63;3.00;;;-0.70;99.90;;;;;;4973786;28;20023;-90
2021/01/09 13:50:40;;;;;;;4.50;2.75;;;-0.80;99.90;;;;;;4975189;28;20030;-89
2021/01/09 13:53:06;;;;;;;4.53;2.88;;;-0.90;99.90;;;;;;4974392;28;20101;-91
2021/01/09 13:55:31;;;;;;;5.05;3.67;;;-0.80;99.90;;;;;;4974216;28;20105;-87
2021/01/09 13:57:57;;;;;;;3.67;2.90;;;-0.80;99.90;;;;;;4974898;28;20027;-88
2021/01/09 14:00:23;;;;;;;3.28;2.42;;;-0.90;99.90;;;;;;4973168;28;20360;-78
2021/01/09 14:02:50;;;;;;;5.55;2.95;;;-1.00;99.90;;;;;;4972717;28;20027;-77
2021/01/09 14:05:15;;;;;;;4.03;2.88;;;-1.00;99.90;;;;;;4971986;28;20110;-77
2021/01/09 14:07:41;;;;;;;4.18;2.60;;;-1.10;99.90;;;;;;4970986;28;20434;-77
2021/01/09 14:10:08;;;;;;;5.80;2.75;;;-1.10;99.90;;;;;;4971143;28;20027;-77
2021/01/09 14:12:35;;;;;;;5.00;2.80;;;-1.20;99.90;;;;;;4973108;28;20031;-76
2021/01/09 14:15:04;;;;;;;3.47;2.47;;;-1.20;99.90;;;;;;4973116;28;20027;-77
2021/01/09 14:17:30;;;;;;;6.65;3.22;;;-1.30;99.90;;;;;;4974981;28;20427;-79
2021/01/09 14:19:56;;;;;;;2.40;2.17;;;-1.30;99.90;;;;;;4976399;28;20134;-78
2021/01/09 14:22:22;;;;;;;4.65;2.85;;;-1.30;99.90;;;;;;4975532;28;20037;-80
2021/01/09 14:24:47;;;;;;;3.22;2.35;;;-1.30;99.90;;;;;;4976986;28;20035;-77
2021/01/09 14:27:13;;;;;;;2.50;2.22;;;-1.30;99.90;;;;;;4976537;28;20031;-77
2021/01/09 14:29:39;;;;;;;3.15;2.42;;;-1.40;99.90;;;;;;4976606;28;20586;-77
2021/01/09 14:32:05;;;;;;;4.93;2.83;;;-1.40;99.90;;;;;;4976081;28;20113;-85
2021/01/09 14:34:31;;;;;;;3.20;2.50;;;-1.40;99.90;;;;;;4976846;28;20035;-87
2021/01/09 14:37:01;;;;;;;4.85;3.15;;;-1.50;99.90;;;;;;4976849;28;20019;-90
2021/01/09 14:39:27;;;;;;;3.47;2.50;;;-1.50;99.90;;;;;;4977238;28;20426;-86
2021/01/09 14:41:53;;;;;;;3.60;2.80;;;-1.50;99.90;;;;;;4976917;28;20030;-88
2021/01/09 14:44:18;;;;;;;3.00;2.70;;;-1.50;99.90;;;;;;4967924;28;20177;-87
2021/01/09 14:46:44;;;;;;;3.90;2.55;;;-1.50;99.90;;;;;;4976422;28;20026;-86
2021/01/09 14:49:10;;;;;;;4.03;2.75;;;-1.50;99.90;;;;;;4976760;28;20038;-85
2021/01/09 14:51:36;;;;;;;7.60;3.83;;;-1.60;99.90;;;;;;4973960;28;20437;-84
2021/01/09 14:54:02;;;;;;;5.30;3.63;;;-1.60;99.90;;;;;;4979042;28;20027;-90
2021/01/09 14:56:28;;;;;;;4.95;3.60;;;-1.60;99.90;;;;;;4975672;28;20031;-80
2021/01/09 14:58:54;;;;;;;3.78;2.78;;;-1.60;99.90;;;;;;4975718;28;20037;-83
2021/01/09 15:01:21;;;;;;;4.70;3.42;;;-1.60;99.90;;;;;;4977816;28;20126;-75
2021/01/09 15:03:48;;;;;;;8.20;5.43;;;-1.50;99.90;;;;;;4976321;28;20041;-87
2021/01/09 15:06:15;;;;;;;6.70;4.55;;;-1.50;99.90;;;;;;4979017;28;20109;-88
2021/01/09 15:08:41;;;;;;;4.57;2.97;;;-1.50;99.90;;;;;;4976453;28;20031;-88
2021/01/09 15:11:07;;;;;;;4.43;3.15;;;-1.50;99.90;;;;;;4975661;28;20027;-79
2021/01/09 15:13:33;;;;;;;4.70;2.85;;;-1.50;99.90;;;;;;4984160;28;20114;-79
2021/01/09 15:16:00;;;;;;;3.45;2.42;;;-1.50;99.90;;;;;;4976619;28;20030;-83
2021/01/09 15:21:25;;;;;;;4.63;2.38;;;-1.60;99.90;;;;;;4973894;28;20054;-83
2021/01/09 15:23:51;;;;;;;3.13;2.55;;;-1.60;99.90;;;;;;4975606;28;20027;-82
2021/01/09 15:26:17;;;;;;;3.53;2.58;;;-1.60;99.90;;;;;;4975759;28;20097;-81
2021/01/09 15:28:42;;;;;;;2.72;2.38;;;-1.60;99.90;;;;;;4975426;28;20569;-81
2021/01/09 15:31:08;;;;;;;2.58;2.33;;;-1.60;99.90;;;;;;4975845;28;20118;-83
2021/01/09 15:33:34;;;;;;;3.05;2.20;;;-1.60;99.90;;;;;;4975861;28;20035;-84
2021/01/09 15:36:00;;;;;;;2.92;2.40;;;-1.60;99.90;;;;;;4974509;28;20027;-83
2021/01/09 15:38:25;;;;;;;3.70;2.42;;;-1.60;99.90;;;;;;4975518;28;20538;-71
2021/01/09 15:40:51;;;;;;;3.38;2.50;;;-1.70;99.90;;;;;;4975391;28;20027;-70
2021/01/09 15:43:17;;;;;;;5.55;2.53;;;-1.20;99.90;;;;;;4975277;28;20478;-70
2021/01/09 15:45:42;;;;;;;3.60;2.72;;;-1.20;99.90;;;;;;4975298;28;20124;-71
2021/01/09 15:48:08;;;;;;;3.95;2.60;;;-1.20;99.90;;;;;;4975196;28;20031;-74
2021/01/09 15:50:34;;;;;;;3.13;2.13;;;-1.40;99.90;;;;;;4975356;28;20027;-71
2021/01/09 15:53:00;;;;;;;3.10;2.53;;;-1.40;99.90;;;;;;4975031;28;20023;-71
2021/01/09 15:55:25;;;;;;;3.75;2.80;;;-1.50;99.90;;;;;;4975154;28;20042;-71
2021/01/09 15:57:51;;;;;;;5.82;3.47;;;-1.60;99.90;;;;;;4974668;28;20113;-71
2021/01/09 16:00:17;;;;;;;6.18;3.15;;;-1.60;99.90;;;;;;4974586;28;20761;-73
2021/01/09 16:02:43;;;;;;;3.42;2.83;;;-1.50;99.90;;;;;;4975063;28;20027;-71
2021/01/09 16:05:08;;;;;;;4.53;2.58;;;-1.50;99.90;;;;;;4974817;28;20101;-72
2021/01/09 16:07:34;;;;;;;3.95;2.55;;;-1.50;99.90;;;;;;4974950;28;20387;-72
2021/01/09 16:10:00;;;;;;;3.63;2.42;;;-1.50;99.90;;;;;;4974847;28;20023;-71
2021/01/09 16:12:26;;;;;;;4.88;3.20;;;-1.60;99.90;;;;;;4974881;28;20027;-71
2021/01/09 16:14:57;;;;;;;4.22;3.00;;;-1.60;99.90;;;;;;4974946;28;20027;-72
2021/01/09 16:17:23;;;;;;;2.72;2.53;;;-1.60;99.90;;;;;;4974578;28;20031;-72
2021/01/09 16:19:49;;;;;;;3.47;2.38;;;-1.60;99.90;;;;;;4974643;28;20406;-71
2021/01/09 16:22:15;;;;;;;3.17;2.60;;;-1.60;99.90;;;;;;4973303;28;20027;-72
2021/01/09 16:24:41;;;;;;;3.03;2.25;;;-1.60;99.90;;;;;;4974556;28;20039;-72
2021/01/09 16:27:09;;;;;;;4.25;2.60;;;-1.60;99.90;;;;;;4974421;28;20390;-72
2021/01/09 16:29:36;;;;;;;3.15;2.17;;;-1.70;99.90;;;;;;4974886;28;20071;-71
2021/01/09 16:32:02;;;;;;;3.05;2.28;;;-1.70;99.90;;;;;;4974354;28;20508;-71
2021/01/09 16:34:28;;;;;;;4.50;2.42;;;-1.50;99.90;;;;;;4974509;28;20031;-71
2021/01/09 16:36:53;;;;;;;3.72;2.65;;;-1.50;99.90;;;;;;4974362;28;20467;-80
2021/01/09 16:39:20;;;;;;;2.88;2.03;;;-1.60;99.90;;;;;;4973707;28;20110;-73
2021/01/09 16:41:46;;;;;;;2.55;2.30;;;-1.60;99.90;;;;;;4974658;28;20090;-79
2021/01/09 16:44:11;;;;;;;2.70;2.25;;;-1.70;99.90;;;;;;4970839;28;20495;-73
2021/01/09 16:46:38;;;;;;;2.65;2.20;;;-1.70;99.90;;;;;;4966487;28;20093;-73
2021/01/09 16:49:04;;;;;;;2.85;2.35;;;-1.60;99.90;;;;;;4965919;28;20019;-73
2021/01/09 16:51:31;;;;;;;3.00;2.13;;;-1.70;99.90;;;;;;4954877;29;20028;-74
2021/01/09 16:53:56;;;;;;;4.50;2.63;;;-1.60;99.90;;;;;;4969708;28;20088;-74
2021/01/09 16:56:31;;;;;;;3.67;2.67;;;-1.60;99.90;;;;;;4973731;28;20022;-74
2021/01/09 16:58:57;;;;;;;3.20;2.45;;;-1.70;99.90;;;;;;4974436;28;20018;-84
2021/01/09 17:01:23;;;;;;;2.72;2.28;;;-1.70;99.90;;;;;;4974310;28;20045;-80
2021/01/09 17:03:48;;;;;;;4.80;3.20;;;-1.70;99.90;;;;;;4974123;28;20170;-89
2021/01/09 17:06:14;;;;;;;3.05;2.10;;;-1.70;99.90;;;;;;4974205;28;20041;-88
2021/01/09 17:08:42;;;;;;;3.95;2.63;;;-1.70;99.90;;;;;;4974509;28;20026;-84
2021/01/09 17:11:07;;;;;;;5.15;3.40;;;-1.70;99.90;;;;;;4973916;28;20034;-87
2021/01/09 17:13:33;;;;;;;2.75;2.47;;;-1.70;99.90;;;;;;4975266;28;20023;-91
2021/01/09 17:15:59;;;;;;;3.38;2.70;;;-1.60;99.90;;;;;;4974420;28;20595;-84
2021/01/09 17:18:24;;;;;;;3.70;2.75;;;-1.60;99.90;;;;;;4973927;28;20035;-86
2021/01/09 17:20:50;;;;;;;2.97;2.20;;;-1.60;99.90;;;;;;4972825;28;20051;-83
2021/01/09 17:23:16;;;;;;;4.18;2.80;;;-1.60;99.90;;;;;;4973911;28;20026;-87
2021/01/09 17:25:48;;;;;;;3.22;2.60;;;-1.60;99.90;;;;;;4973574;28;20042;-84
2021/01/09 17:28:16;;;;;;;3.22;2.60;;;-1.60;99.90;;;;;;4973991;28;20044;-86
2021/01/09 17:30:43;;;;;;;3.88;2.47;;;-1.50;99.90;;;;;;4973793;28;20026;-86
2021/01/09 17:33:09;;;;;;;4.30;2.67;;;-1.50;99.90;;;;;;4973718;28;20027;-84
2021/01/09 17:35:35;;;;;;;3.65;2.30;;;-1.50;99.90;;;;;;4974598;28;20022;-82
2021/01/09 17:38:00;;;;;;;2.58;2.10;;;-1.60;99.90;;;;;;4973531;28;20026;-81
2021/01/09 17:40:26;;;;;;;2.92;2.33;;;-1.60;99.90;;;;;;4972896;28;20037;-79
2021/01/09 17:42:52;;;;;;;3.75;2.70;;;-1.60;99.90;;;;;;4973481;28;20023;-89
2021/01/09 17:45:17;;;;;;;5.53;2.97;;;-1.70;99.90;;;;;;4972504;28;20490;-82
2021/01/09 17:47:43;;;;;;;3.63;2.38;;;-1.60;99.90;;;;;;4973512;28;20030;-80
2021/01/09 17:50:10;;;;;;;3.63;2.75;;;-1.60;99.90;;;;;;4973156;28;20486;-81
2021/01/09 17:52:35;;;;;;;3.13;2.47;;;-1.50;99.90;;;;;;4972319;28;20072;-81
2021/01/09 17:55:02;;;;;;;3.45;2.50;;;-1.50;99.90;;;;;;4973499;28;20109;-79
2021/01/09 17:57:28;;;;;;;3.15;2.40;;;-1.60;99.90;;;;;;4972959;28;20364;-80
2021/01/09 17:59:53;;;;;;;3.30;2.17;;;-1.60;99.90;;;;;;4973430;28;20034;-87
2021/01/09 18:02:19;;;;;;;3.05;2.22;;;-1.50;99.90;;;;;;4973270;28;20034;-83
2021/01/09 18:04:45;;;;;;;3.33;2.60;;;-1.60;99.90;;;;;;4973213;28;20039;-82
2021/01/09 18:07:11;;;;;;;3.42;2.63;;;-1.50;99.90;;;;;;4973058;28;20031;-84
2021/01/09 18:09:38;;;;;;;3.75;2.28;;;-1.50;99.90;;;;;;4973425;28;20068;-83
2021/01/09 18:12:03;;;;;;;2.97;2.38;;;-1.50;99.90;;;;;;4973458;28;20427;-84